Flight Track Log - Related Links

Times and Time Zones

All times are in EDT time to prevent confusion due to time zone crossing. See the N52384 flight status page for this flight to view local times or setup timezone preferences in your user account.

Time Position Orientation Groundspeed Altitude Reporting Facility
EDT Latitude Longitude Course Direction KTS MPH feet Rate Location/Type
Sat 04:34:13 PM 41.4419 -71.4819 254° West 119 137 4,200  Level Boston Center
Sat 04:35:14 PM 41.4381 -71.5236 263° West 115 132 4,500 198 Climbing Boston Center
Sat 04:36:14 PM 41.4342 -71.5653 263° West 120 138 4,600 50 Climbing Boston Center
Sat 04:37:15 PM 41.4283 -71.6150 261° West 126 145 4,600  Level Boston Center
Sat 04:38:10 PM 41.4244 -71.6567 263° West 126 145 4,600  Level Boston Center
Sat 04:39:00 PM 41.4579 -71.6209 254° West  Level Estimated
Sat 04:39:23 PM 41.4206 -71.7175 265° West 131 151 4,600  Level Boston Center
Sat 04:40:23 PM 41.4167 -71.7647 264° West 132 152 4,600  Level Boston Center
Sat 04:41:24 PM 41.4128 -71.8144 264° West 134 154 4,600 -52 Level Boston Center
Sat 04:42:19 PM 41.4089 -71.8589 263° West 132 152 4,500 -50 Descending Boston Center
Sat 04:43:25 PM 41.4031 -71.9114 262° West 126 145 4,500  Level Boston Center
Sat 04:44:32 PM 41.3969 -71.9586 260° West 117 135 4,500  Level Boston Center
Sat 04:45:33 PM 41.3950 -72.0028 267° West 119 137 4,500  Level Boston Center
Sat 04:46:33 PM 41.3911 -72.0472 263° West 123 142 4,500  Level Boston Center
Sat 04:47:28 PM 41.3869 -72.0914 263° West 127 146 4,500 -52 Level Boston Center
Sat 04:48:29 PM 41.3831 -72.1386 264° West 132 152 4,400  Descending Boston Center
Sat 04:49:29 PM 41.3769 -72.1856 260° West 121 139 4,500 47 Climbing Boston Center
Sat 04:50:36 PM 41.3750 -72.2381 267° West 123 142 4,500  Level Boston Center
Sat 04:51:37 PM 41.3708 -72.2797 262° West 120 138 4,500  Level Boston Center
Sat 04:53:45 PM 41.3667 -72.3667 266° West 122 140 4,500 96 Level New York TRACON
Sat 04:54:45 PM 41.3667 -72.4167 270° West 112 129 4,800 -53 Climbing New York TRACON
Sat 04:55:39 PM 41.3667 -72.4500 270° West 130 150 4,400 -150 Descending New York TRACON
Sat 04:56:45 PM 41.3500 -72.5000 246° West 121 139 4,500 50 Climbing New York TRACON
Sat 04:57:39 PM 41.3500 -72.5500 270° West 119 137 4,500  Level New York TRACON
Sat 04:58:45 PM 41.3500 -72.6000 270° West 119 137 4,500 -50 Level New York TRACON
Sat 04:59:39 PM 41.3500 -72.6333 270° West 119 137 4,400 -50 Descending New York TRACON
Sat 05:00:45 PM 41.3500 -72.6833 270° West 117 135 4,400 48 Level New York TRACON
Sat 05:01:45 PM 41.3500 -72.7167 270° West 116 133 4,500 50 Climbing New York TRACON
Sat 05:02:45 PM 41.3333 -72.7667 246° West 117 135 4,500 50 Level New York TRACON
Sat 05:03:45 PM 41.3333 -72.8000 270° West 122 140 4,600 50 Climbing New York TRACON
Sat 05:04:45 PM 41.3333 -72.8500 270° West 121 139 4,600  Level New York TRACON
Sat 05:05:45 PM 41.3333 -72.9000 270° West 123 142 4,600 -50 Level New York TRACON
Sat 05:06:45 PM 41.3333 -72.9333 270° West 122 140 4,500 -50 Descending New York TRACON
Sat 05:07:45 PM 41.3333 -72.9833 270° West 122 140 4,500 50 Level New York TRACON
Sat 05:08:45 PM 41.3333 -73.0333 270° West 119 137 4,600 50 Climbing New York TRACON
Sat 05:09:45 PM 41.3333 -73.0667 270° West 121 139 4,600 -53 Level New York TRACON
Sat 05:10:39 PM 41.3333 -73.1167 270° West 124 143 4,500 -50 Descending New York TRACON
Sat 05:11:45 PM 41.3333 -73.1667 270° West 122 140 4,500  Level New York TRACON
Sat 05:12:45 PM 41.3333 -73.2167 270° West 131 151 4,500 50 Level New York TRACON
Sat 05:13:45 PM 41.3167 -73.2500 236° Southwest 120 138 4,600 53 Climbing New York TRACON
Sat 05:14:39 PM 41.3167 -73.3000 270° West 122 140 4,600  Level New York TRACON
Sat 05:15:45 PM 41.3167 -73.3333 270° West 121 139 4,600 -48 Level New York TRACON
Sat 05:16:45 PM 41.3000 -73.3833 246° West 128 147 4,500  Descending New York TRACON
Sat 05:17:45 PM 41.3000 -73.4333 270° West 119 137 4,600 50 Climbing New York TRACON
Sat 05:18:45 PM 41.3000 -73.4667 270° West 122 140 4,600  Level New York TRACON
Sat 05:19:45 PM 41.2833 -73.5167 246° West 119 137 4,600  Level New York TRACON
Sat 05:20:45 PM 41.2833 -73.5667 270° West 123 142 4,600  Level New York TRACON
Sat 05:21:40 PM 41.2667 -73.6000 236° Southwest 122 140 4,600  Level New York TRACON
Sat 05:22:45 PM 41.2667 -73.6500 270° West 122 140 4,600 -48 Level New York TRACON
Sat 05:23:45 PM 41.2500 -73.6833 236° Southwest 127 146 4,500  Descending New York TRACON
Sat 05:24:45 PM 41.2500 -73.7333 270° West 124 143 4,600 52 Climbing New York TRACON
Sat 05:25:40 PM 41.2333 -73.7667 236° Southwest 124 143 4,600 -52 Level New York TRACON
Sat 05:26:40 PM 41.2333 -73.8167 270° West 122 140 4,500 -336 Descending New York TRACON
Sat 05:27:45 PM 41.2167 -73.8667 246° West 132 152 3,900 -624 Descending New York TRACON
Sat 05:28:45 PM 41.2000 -73.9167 246° West 127 146 3,200 -600 Descending New York TRACON
Sat 05:29:45 PM 41.2000 -73.9667 270° West 130 150 2,700 -347 Descending New York TRACON
Sat 05:30:46 PM 41.1833 -74.0000 236° Southwest 120 138 2,500 -100 Descending New York TRACON
Sat 05:31:45 PM 41.1667 -74.0333 236° Southwest 120 138 2,500  Level New York TRACON
Sat 05:33:45 PM 41.1333 -74.0833 228° Southwest 117 135 2,500 33 Level New York TRACON
Sat 05:34:46 PM 41.1000 -74.1167 217° Southwest 113 130 2,600  Climbing New York TRACON
Sat 05:35:45 PM 41.0833 -74.1500 236° Southwest 112 129 2,500 -100 Descending New York TRACON
Sat 05:36:46 PM 41.0500 -74.1667 201° Southwest 108 124 2,400  Descending New York TRACON
Sat 05:37:46 PM 41.0333 -74.1833 217° Southwest 109 125 2,500 50 Climbing New York TRACON
Sat 05:38:46 PM 41.0000 -74.2167 217° Southwest 107 123 2,500 50 Level New York TRACON
Sat 05:39:46 PM 40.9833 -74.2333 217° Southwest 105 121 2,600 96 Climbing New York TRACON
Sat 05:40:51 PM 40.9500 -74.2500 201° Southwest 111 128 2,700 96 Climbing New York TRACON
Sat 05:41:51 PM 40.9333 -74.2833 237° Southwest 114 131 2,800  Climbing New York TRACON
Sat 05:42:52 PM 40.9000 -74.3000 201° Southwest 115 132 2,700 -298 Descending New York TRACON
Sat 05:43:52 PM 40.8833 -74.3333 237° Southwest 126 145 2,200 -600 Descending New York TRACON
Sat 05:44:52 PM 40.8500 -74.3667 217° Southwest 115 132 1,500 -300 Descending New York TRACON
Sat 05:45:52 PM 40.8500 -74.4000 270° West 106 122 1,600 100 Climbing New York TRACON

Login

Don't have an account? Register now (free) for customized features, flight alerts, and more!